CURRENT TEMPERATURE

METAR

Date:      Time:        

Showing Weather of: 0000 UTC (+5 PST) of dated 3/1/2021

STATION UPLOADED TIME METAR DATA
NAME CODE
Badin OPBDN 5:18:39 AM OPBDN 010000Z 00000KT 5000 NSC 19/17 Q1009 82%=
Dadu OPDU 5:18:39 AM OPDU 010000Z 36002KT 3000 BR NSC 15/11 83%=
Jacobabad OPJD
KARACHI A/P OPKC 5:18:39 AM OPKC 010000Z 27006KT 5000 FU NSC 23/17 Q1011 70%=
Hyderabad OPKD 5:18:39 AM OPKD 010000Z 00000KT 4000 FU NSC 16/10 Q,1011 69%=
Chhor OPKE 5:25:08 AM OPKE 010000Z 00000KT 6000 NSC 15/10 Q1012 73%=
Larkana OPLRK 5:18:39 AM OPLRK 010000Z 00000KT 6000 NSC 16/12 Q1011 79%=
Mithi OPMIT 5:25:08 AM OPMIT 010100Z 22502KT 6000 NSC 17/11 Q1010 70%=
Moen-jo-Daro OPMJ 5:18:39 AM OPMJ 010000Z 00000KT 4000 HZ NSC 11/07 Q1010 75% NO SIG=
Mirpurkhas OPMPK 5:18:39 AM OPMPK 010000Z 00000KT 6000 15/12 Q1011 83%=
Nawabshah OPNH 5:18:39 AM OPNH 010000Z 00000KT 2000 FU NSC 15/10 Q1011 73% TEMPO 1500M FU=
Padidan OPPDN 5:18:39 AM OPPDN 010000Z 00000KT 3000 BR 12/09 Q1011 82%=
Rohri OPRRI
Sukkur OPSK 5:18:39 AM OPSK 010000Z 00000KT 2000 HZ NSC 13/09 Q1007 77% NOSIG=
Sukrand OPSKD 5:18:39 AM OPSKD 010000Z 31502KT 600 HZ NSC 13/07 67%=
Tando-Jam OPTJM 5:18:39 AM OPTJM 010000Z 00000KT 6000 SKC 14/11 Q1013 83%=
LAST 24-HOURS WEATHER
Uzair Ahmed Qureshi